createdAt,value
2019-02-17T00:01:53.868Z,15.67
2019-02-17T00:04:21.952Z,15.53
2019-02-17T00:06:49.968Z,15.80
2019-02-17T00:09:17.707Z,15.63
2019-02-17T00:11:45.408Z,15.23
2019-02-17T00:14:13.118Z,15.30
2019-02-17T00:16:40.968Z,16.17
2019-02-17T00:19:08.777Z,15.43
2019-02-17T00:21:36.627Z,16.33
2019-02-17T00:24:04.411Z,16.33
2019-02-17T00:26:40.651Z,16.40
2019-02-17T00:29:08.560Z,15.53
2019-02-17T00:31:36.224Z,15.30
2019-02-17T00:34:03.951Z,15.27
2019-02-17T00:36:31.668Z,15.90
2019-02-17T00:38:59.399Z,14.47
2019-02-17T00:41:27.140Z,15.33
2019-02-17T00:43:54.887Z,14.37
2019-02-17T00:46:22.692Z,15.47
2019-02-17T00:48:50.429Z,13.93
2019-02-17T00:51:18.155Z,14.80
2019-02-17T00:53:45.860Z,15.03
2019-02-17T00:56:13.704Z,15.30
2019-02-17T00:58:43.593Z,15.17
2019-02-17T01:01:11.320Z,15.53
2019-02-17T01:03:39.089Z,15.13
2019-02-17T01:06:06.825Z,14.50
2019-02-17T01:08:36.314Z,14.33
2019-02-17T01:11:04.026Z,13.87
2019-02-17T01:13:31.762Z,15.73
2019-02-17T01:15:59.500Z,15.37
2019-02-17T01:18:27.273Z,14.63
2019-02-17T01:20:54.974Z,14.70
2019-02-17T01:23:22.743Z,14.47
2019-02-17T01:25:50.533Z,14.67
2019-02-17T01:28:18.260Z,15.20
2019-02-17T01:30:46.018Z,14.70
2019-02-17T01:33:15.683Z,14.30
2019-02-17T01:35:43.473Z,14.47
2019-02-17T01:38:11.165Z,14.43
2019-02-17T01:40:38.959Z,14.00
2019-02-17T01:43:06.681Z,14.80
2019-02-17T01:45:34.409Z,14.60
2019-02-17T01:48:02.161Z,14.00
2019-02-17T01:50:29.887Z,13.63
2019-02-17T01:52:57.611Z,14.20
2019-02-17T01:55:25.416Z,14.03
2019-02-17T01:57:53.111Z,14.30
2019-02-17T02:00:20.935Z,14.70
2019-02-17T02:02:48.687Z,14.80
2019-02-17T02:05:16.766Z,14.10
2019-02-17T02:07:44.545Z,14.30
2019-02-17T02:10:12.418Z,13.73
2019-02-17T02:12:40.124Z,14.40
2019-02-17T02:15:08.271Z,14.43
2019-02-17T02:17:36.065Z,14.60
2019-02-17T02:20:04.900Z,14.37
2019-02-17T02:22:32.831Z,13.87
2019-02-17T02:25:00.524Z,14.80
2019-02-17T02:27:28.219Z,15.67
2019-02-17T02:29:55.926Z,14.27
2019-02-17T02:32:23.633Z,13.23
2019-02-17T02:34:51.374Z,14.43
2019-02-17T02:37:19.129Z,13.70
2019-02-17T02:39:46.970Z,14.00
2019-02-17T02:42:14.754Z,14.43
2019-02-17T02:44:42.471Z,14.97
2019-02-17T02:47:10.162Z,13.93
2019-02-17T02:49:37.889Z,15.20
2019-02-17T02:52:05.785Z,15.40
2019-02-17T02:54:33.535Z,15.37
2019-02-17T02:57:01.245Z,14.73
2019-02-17T02:59:29.034Z,14.40
2019-02-17T03:01:56.728Z,15.13
2019-02-17T03:04:24.495Z,13.90
2019-02-17T03:06:55.296Z,15.30
2019-02-17T03:09:23.062Z,14.33
2019-02-17T03:11:50.825Z,14.50
2019-02-17T03:14:18.889Z,14.13
2019-02-17T03:16:46.801Z,15.40
2019-02-17T03:19:14.429Z,14.13
2019-02-17T03:21:42.142Z,13.83
2019-02-17T03:24:09.849Z,15.07
2019-02-17T03:26:37.581Z,14.83
2019-02-17T03:29:05.288Z,15.57
2019-02-17T03:31:33.120Z,14.53
2019-02-17T03:34:00.805Z,14.83
2019-02-17T03:36:28.522Z,14.97
2019-02-17T03:38:56.367Z,14.03
2019-02-17T03:41:24.011Z,15.93
2019-02-17T03:43:51.614Z,14.03
2019-02-17T03:46:19.417Z,15.93
2019-02-17T03:48:47.129Z,16.37
2019-02-17T03:51:14.947Z,15.03
2019-02-17T03:53:42.629Z,15.60
2019-02-17T03:56:10.343Z,14.57
2019-02-17T03:58:38.036Z,15.10
2019-02-17T04:01:05.772Z,15.13
2019-02-17T04:03:33.474Z,14.90
2019-02-17T04:06:01.227Z,15.47
2019-02-17T04:08:28.973Z,16.10
2019-02-17T04:10:56.719Z,15.07
2019-02-17T04:13:24.403Z,15.70
2019-02-17T04:15:52.074Z,16.43
2019-02-17T04:18:19.811Z,15.27
2019-02-17T04:20:47.572Z,15.17
2019-02-17T04:23:15.212Z,15.20
2019-02-17T04:25:42.891Z,15.90
2019-02-17T04:28:10.668Z,15.40
2019-02-17T04:30:38.364Z,15.17
2019-02-17T04:33:06.067Z,14.93
2019-02-17T04:35:33.810Z,15.63
2019-02-17T04:38:01.538Z,15.83
2019-02-17T04:40:30.859Z,16.17
2019-02-17T04:42:58.624Z,16.07
2019-02-17T04:45:26.291Z,15.50
2019-02-17T04:47:53.955Z,16.00
2019-02-17T04:50:21.674Z,16.30
2019-02-17T04:52:49.327Z,14.53
2019-02-17T04:55:17.026Z,15.47
2019-02-17T04:57:44.679Z,15.53
2019-02-17T05:00:12.454Z,16.17
2019-02-17T05:02:40.158Z,16.83
2019-02-17T05:05:07.875Z,17.00
2019-02-17T05:07:35.580Z,15.60
2019-02-17T05:10:03.550Z,16.17
2019-02-17T05:12:31.289Z,16.83
2019-02-17T05:14:59.016Z,17.30
2019-02-17T05:17:26.806Z,16.20
2019-02-17T05:19:54.564Z,16.33
2019-02-17T05:22:22.275Z,17.77
2019-02-17T05:24:51.824Z,16.77
2019-02-17T05:27:19.494Z,16.53
2019-02-17T05:29:47.257Z,17.37
2019-02-17T05:32:14.946Z,16.13
2019-02-17T05:34:42.642Z,16.33
2019-02-17T05:37:10.490Z,15.53
2019-02-17T05:39:38.148Z,17.53
2019-02-17T05:42:05.857Z,15.50
2019-02-17T05:44:33.548Z,16.33
2019-02-17T05:47:01.242Z,16.77
2019-02-17T05:49:28.966Z,16.47
2019-02-17T05:51:56.775Z,16.43
2019-02-17T05:54:24.511Z,16.47
2019-02-17T05:56:52.170Z,16.00
2019-02-17T05:59:19.872Z,16.87
2019-02-17T06:01:47.481Z,16.40
2019-02-17T06:04:15.222Z,16.23
2019-02-17T06:06:56.559Z,16.47
2019-02-17T06:09:24.262Z,17.17
2019-02-17T06:11:51.922Z,16.27
2019-02-17T06:14:19.608Z,16.50
2019-02-17T06:16:47.346Z,15.60
2019-02-17T06:19:17.613Z,15.63
2019-02-17T06:21:44.725Z,16.67
2019-02-17T06:24:12.456Z,15.47
2019-02-17T06:26:40.202Z,15.43
2019-02-17T06:29:07.980Z,16.20
2019-02-17T06:31:35.730Z,16.17
2019-02-17T06:34:03.532Z,15.23
2019-02-17T06:36:31.254Z,16.27
2019-02-17T06:38:59.061Z,16.70
2019-02-17T06:41:26.715Z,15.20
2019-02-17T06:43:54.399Z,16.03
2019-02-17T06:46:26.230Z,15.37
2019-02-17T06:48:56.394Z,16.57
2019-02-17T06:51:24.125Z,16.23
2019-02-17T06:53:52.868Z,16.07
2019-02-17T06:56:45.860Z,16.00
2019-02-17T06:59:13.598Z,15.70
2019-02-17T07:01:41.432Z,15.43
2019-02-17T07:04:09.172Z,15.20
2019-02-17T07:06:40.529Z,16.03
2019-02-17T07:09:08.170Z,16.63
2019-02-17T07:11:35.971Z,15.47
2019-02-17T07:14:04.085Z,16.00
2019-02-17T07:16:31.832Z,15.90
2019-02-17T07:18:59.487Z,16.70
2019-02-17T07:21:27.142Z,17.07
2019-02-17T07:23:54.891Z,16.17
2019-02-17T07:26:22.629Z,16.63
2019-02-17T07:28:50.277Z,17.20
2019-02-17T07:31:17.985Z,17.10
2019-02-17T07:33:45.658Z,16.63
2019-02-17T07:36:13.429Z,17.47
2019-02-17T07:38:41.042Z,16.90
2019-02-17T07:41:08.776Z,17.53
2019-02-17T07:43:36.453Z,17.17
2019-02-17T07:46:04.249Z,18.13
2019-02-17T07:48:31.964Z,16.20
2019-02-17T07:50:59.744Z,17.87
2019-02-17T07:53:27.524Z,17.10
2019-02-17T07:55:55.195Z,16.77
2019-02-17T07:58:22.951Z,18.57
2019-02-17T08:00:50.745Z,16.47
2019-02-17T08:03:18.410Z,16.30
2019-02-17T08:05:46.246Z,16.83
2019-02-17T08:08:13.993Z,17.23
2019-02-17T08:10:41.627Z,17.40
2019-02-17T08:13:09.386Z,17.33
2019-02-17T08:15:37.135Z,17.53
2019-02-17T08:18:04.935Z,16.53
2019-02-17T08:20:32.611Z,17.13
2019-02-17T08:23:00.598Z,16.80
2019-02-17T08:25:28.360Z,16.90
2019-02-17T08:27:56.098Z,16.77
2019-02-17T08:30:23.853Z,16.93
2019-02-17T08:32:52.713Z,16.90
2019-02-17T08:35:20.361Z,16.90
2019-02-17T08:37:48.206Z,16.53
2019-02-17T08:40:16.023Z,16.47
2019-02-17T08:42:43.787Z,15.70
2019-02-17T08:45:11.474Z,17.17
2019-02-17T08:47:39.262Z,16.57
2019-02-17T08:50:08.393Z,16.00
2019-02-17T08:52:36.201Z,15.50
2019-02-17T08:55:04.435Z,16.63
2019-02-17T08:57:32.196Z,15.57
2019-02-17T08:59:59.938Z,16.60
2019-02-17T09:02:27.745Z,16.47
2019-02-17T09:04:55.463Z,16.47
2019-02-17T09:07:23.231Z,14.97
2019-02-17T09:09:51.017Z,14.47
2019-02-17T09:12:18.795Z,15.10
2019-02-17T09:14:46.795Z,14.90
2019-02-17T09:17:14.541Z,14.57
2019-02-17T09:19:42.266Z,13.97
2019-02-17T09:22:12.202Z,15.03
2019-02-17T09:24:39.967Z,15.40
2019-02-17T09:27:07.785Z,16.17
2019-02-17T09:29:35.584Z,15.23
2019-02-17T09:32:03.341Z,15.23
2019-02-17T09:34:31.111Z,15.33
2019-02-17T09:36:59.184Z,15.43
2019-02-17T09:39:26.946Z,15.57
2019-02-17T09:41:54.636Z,14.87
2019-02-17T09:44:22.388Z,15.03
2019-02-17T09:46:50.132Z,14.30
2019-02-17T09:49:17.888Z,15.50
2019-02-17T09:51:45.575Z,15.30
2019-02-17T09:54:13.424Z,14.30
2019-02-17T09:56:41.261Z,15.00
2019-02-17T09:59:09.056Z,15.23
2019-02-17T10:01:36.780Z,14.80
2019-02-17T10:04:04.594Z,14.50
2019-02-17T10:06:32.347Z,15.13
2019-02-17T10:09:00.135Z,14.70
2019-02-17T10:11:28.904Z,14.30
2019-02-17T10:13:56.618Z,13.47
2019-02-17T10:16:24.338Z,15.03
2019-02-17T10:18:53.368Z,14.27
2019-02-17T10:21:21.806Z,14.97
2019-02-17T10:23:49.597Z,15.13
2019-02-17T10:26:18.004Z,14.03
2019-02-17T10:28:46.053Z,14.30
2019-02-17T10:31:13.796Z,15.23
2019-02-17T10:33:41.583Z,15.40
2019-02-17T10:36:09.315Z,14.23
2019-02-17T10:38:37.111Z,14.13
2019-02-17T10:41:05.899Z,14.43
2019-02-17T10:43:34.131Z,14.70
2019-02-17T10:46:01.826Z,15.30
2019-02-17T10:48:29.697Z,14.20
2019-02-17T10:50:57.419Z,14.90
2019-02-17T10:53:25.087Z,15.47
2019-02-17T10:55:52.809Z,14.30
2019-02-17T10:58:21.530Z,14.60
2019-02-17T11:00:49.290Z,15.53
2019-02-17T11:03:23.388Z,14.30
2019-02-17T11:05:51.143Z,14.93
2019-02-17T11:08:18.927Z,14.50
2019-02-17T11:10:46.626Z,14.93
2019-02-17T11:13:14.309Z,14.13
2019-02-17T11:15:41.985Z,15.08
2019-02-17T11:18:10.384Z,14.53
2019-02-17T11:20:39.356Z,14.85
2019-02-17T11:23:07.062Z,15.08
2019-02-17T11:25:35.279Z,14.20
2019-02-17T11:28:05.043Z,14.35
2019-02-17T11:30:32.839Z,15.75
2019-02-17T11:33:01.966Z,15.35
2019-02-17T11:35:30.024Z,14.65
2019-02-17T11:37:58.136Z,15.17
2019-02-17T11:40:25.909Z,14.27
2019-02-17T11:42:53.578Z,14.43
2019-02-17T11:45:21.324Z,14.30
2019-02-17T11:47:49.029Z,14.75
2019-02-17T11:50:16.855Z,13.93
2019-02-17T11:52:44.698Z,14.55
2019-02-17T11:55:12.639Z,13.50
2019-02-17T11:57:40.515Z,13.10
2019-02-17T12:00:14.278Z,13.38
2019-02-17T12:02:42.104Z,13.60
2019-02-17T12:05:10.520Z,13.50
2019-02-17T12:07:49.092Z,13.67
2019-02-17T12:10:16.902Z,13.20
2019-02-17T12:12:44.686Z,13.27
2019-02-17T12:15:12.635Z,12.67
2019-02-17T12:17:40.407Z,13.17
2019-02-17T12:20:37.411Z,13.03
2019-02-17T12:23:12.069Z,12.40
2019-02-17T12:26:08.232Z,12.63
2019-02-17T12:29:06.274Z,12.50
2019-02-17T12:31:36.566Z,12.93
2019-02-17T12:34:04.302Z,12.33
2019-02-17T12:36:31.977Z,12.77
2019-02-17T12:38:59.754Z,12.88
2019-02-17T12:41:27.431Z,12.07
2019-02-17T12:43:55.268Z,12.63
2019-02-17T12:46:24.111Z,12.18
2019-02-17T12:48:53.167Z,11.83
2019-02-17T12:51:20.873Z,12.28
2019-02-17T12:53:48.591Z,12.33
2019-02-17T12:56:16.418Z,11.90
2019-02-17T12:58:44.307Z,12.10
2019-02-17T13:01:13.536Z,12.95
2019-02-17T13:03:41.588Z,12.20
2019-02-17T13:06:09.365Z,11.33
2019-02-17T13:08:37.071Z,11.35
2019-02-17T13:11:06.307Z,11.85
2019-02-17T13:13:34.063Z,11.53
2019-02-17T13:16:01.827Z,12.27
2019-02-17T13:18:29.605Z,11.63
2019-02-17T13:20:57.346Z,11.40
2019-02-17T13:23:25.129Z,10.63
2019-02-17T13:25:52.830Z,10.87
2019-02-17T13:28:20.582Z,11.50
2019-02-17T13:30:48.337Z,10.63
2019-02-17T13:33:16.040Z,10.75
2019-02-17T13:35:43.859Z,11.30
2019-02-17T13:38:11.591Z,10.63
2019-02-17T13:40:39.282Z,10.95
2019-02-17T13:43:07.116Z,10.88
2019-02-17T13:45:34.794Z,10.95
2019-02-17T13:48:02.608Z,11.03
2019-02-17T13:50:30.431Z,10.45
2019-02-17T13:52:58.221Z,10.65
2019-02-17T13:55:25.956Z,10.68
2019-02-17T13:57:53.648Z,10.03
2019-02-17T14:00:21.526Z,9.93
2019-02-17T14:02:49.329Z,10.78
2019-02-17T14:05:17.141Z,10.58
2019-02-17T14:07:44.924Z,11.00
2019-02-17T14:10:12.768Z,10.13
2019-02-17T14:12:40.593Z,10.28
2019-02-17T14:15:10.782Z,10.05
2019-02-17T14:17:38.562Z,10.20
2019-02-17T14:20:07.567Z,9.68
2019-02-17T14:22:35.373Z,10.10
2019-02-17T14:25:03.133Z,10.25
2019-02-17T14:27:30.824Z,10.45
2019-02-17T14:29:58.583Z,9.38
2019-02-17T14:32:26.353Z,9.63
2019-02-17T14:34:54.057Z,9.73
2019-02-17T14:37:21.868Z,9.35
2019-02-17T14:39:49.585Z,9.43
2019-02-17T14:42:17.317Z,9.58
2019-02-17T14:44:45.019Z,9.45
2019-02-17T14:47:12.770Z,9.48
2019-02-17T14:50:00.006Z,9.43
2019-02-17T14:52:28.815Z,8.65
2019-02-17T14:54:56.538Z,9.28
2019-02-17T14:57:24.278Z,8.38
2019-02-17T14:59:52.008Z,8.18
2019-02-17T15:02:19.806Z,8.68
2019-02-17T15:04:47.551Z,8.98
2019-02-17T15:07:15.276Z,8.70
2019-02-17T15:09:43.039Z,9.25
2019-02-17T15:12:10.780Z,7.95
2019-02-17T15:14:38.511Z,8.65
2019-02-17T15:17:07.316Z,8.55
2019-02-17T15:19:35.221Z,8.10
2019-02-17T15:22:02.946Z,7.45
2019-02-17T15:24:30.859Z,8.13
2019-02-17T15:26:59.524Z,8.45
2019-02-17T15:29:27.275Z,9.23
2019-02-17T15:31:55.024Z,8.73
2019-02-17T15:34:22.788Z,8.13
2019-02-17T15:36:50.471Z,8.50
2019-02-17T15:39:19.557Z,7.62
2019-02-17T15:41:48.168Z,7.92
2019-02-17T15:44:15.880Z,8.43
2019-02-17T15:46:43.644Z,8.33
2019-02-17T15:49:11.357Z,8.00
2019-02-17T15:51:41.199Z,7.85
2019-02-17T15:54:10.017Z,7.77
2019-02-17T15:56:38.469Z,7.70
2019-02-17T15:59:06.205Z,7.30
2019-02-17T16:01:34.061Z,8.10
2019-02-17T16:04:01.751Z,7.23
2019-02-17T16:06:30.837Z,7.33
2019-02-17T16:08:58.579Z,7.90
2019-02-17T16:11:26.390Z,7.20
2019-02-17T16:13:54.114Z,7.17
2019-02-17T16:16:21.840Z,7.83
2019-02-17T16:18:49.700Z,6.73
2019-02-17T16:21:17.504Z,8.00
2019-02-17T16:23:45.218Z,7.17
2019-02-17T16:26:13.943Z,7.30
2019-02-17T16:28:41.827Z,7.50
2019-02-17T16:31:09.599Z,8.07
2019-02-17T16:33:37.379Z,8.07
2019-02-17T16:36:05.118Z,8.30
2019-02-17T16:38:32.974Z,7.77
2019-02-17T16:41:00.692Z,7.80
2019-02-17T16:43:30.213Z,7.57
2019-02-17T16:45:57.975Z,7.97
2019-02-17T16:48:25.691Z,7.57
2019-02-17T16:50:53.482Z,7.90
2019-02-17T16:53:21.319Z,7.90
2019-02-17T16:55:49.456Z,7.27
2019-02-17T16:58:17.204Z,8.00
2019-02-17T17:00:44.940Z,7.53
2019-02-17T17:03:12.684Z,7.77
2019-02-17T17:05:40.378Z,8.60
2019-02-17T17:08:08.918Z,7.13
2019-02-17T17:10:36.675Z,7.17
2019-02-17T17:13:04.454Z,6.67
2019-02-17T17:15:32.724Z,7.00
2019-02-17T17:18:00.470Z,8.37
2019-02-17T17:20:28.326Z,6.97
2019-02-17T17:22:56.280Z,7.10
2019-02-17T17:25:24.027Z,7.03
2019-02-17T17:27:51.806Z,7.23
2019-02-17T17:30:19.743Z,7.40
2019-02-17T17:32:47.485Z,6.40
2019-02-17T17:35:15.156Z,6.90
2019-02-17T17:37:43.382Z,7.10
2019-02-17T17:40:11.189Z,6.67
2019-02-17T17:42:38.937Z,7.17
2019-02-17T17:45:09.127Z,7.13
2019-02-17T17:47:36.855Z,7.43
2019-02-17T17:50:05.670Z,8.07
2019-02-17T17:52:36.753Z,8.27
2019-02-17T17:55:04.911Z,7.57
2019-02-17T17:57:32.691Z,7.20
2019-02-17T18:00:00.383Z,6.93
2019-02-17T18:02:28.155Z,7.13
2019-02-17T18:04:55.974Z,6.63
2019-02-17T18:07:23.766Z,6.60
2019-02-17T18:09:51.504Z,6.43
2019-02-17T18:12:19.285Z,6.70
2019-02-17T18:14:47.143Z,6.37
2019-02-17T18:17:15.024Z,6.10
2019-02-17T18:19:43.623Z,6.30
2019-02-17T18:22:11.247Z,7.93
2019-02-17T18:24:39.007Z,7.30
2019-02-17T18:27:06.828Z,6.70
2019-02-17T18:29:41.424Z,6.97
2019-02-17T18:32:09.186Z,6.83
2019-02-17T18:34:36.877Z,6.70
2019-02-17T18:37:05.812Z,6.90
2019-02-17T18:39:33.569Z,7.07
2019-02-17T18:42:01.333Z,6.70
2019-02-17T18:44:29.150Z,6.30
2019-02-17T18:46:56.951Z,6.20
2019-02-17T18:49:24.754Z,6.53
2019-02-17T18:51:52.537Z,6.73
2019-02-17T18:54:20.293Z,6.77
2019-02-17T18:56:48.060Z,6.77
2019-02-17T18:59:15.836Z,6.60
2019-02-17T19:01:43.599Z,6.77
2019-02-17T19:04:11.386Z,6.80
2019-02-17T19:06:40.278Z,6.63
2019-02-17T19:09:08.195Z,7.10
2019-02-17T19:11:36.059Z,6.50
2019-02-17T19:14:03.786Z,7.33
2019-02-17T19:16:31.486Z,6.43
2019-02-17T19:18:59.321Z,6.90
2019-02-17T19:21:27.456Z,7.53
2019-02-17T19:23:55.312Z,7.37
2019-02-17T19:26:23.036Z,7.17
2019-02-17T19:28:50.774Z,7.73
2019-02-17T19:31:19.928Z,7.00
2019-02-17T19:33:47.723Z,6.67
2019-02-17T19:36:15.541Z,7.47
2019-02-17T19:38:43.289Z,7.03
2019-02-17T19:41:10.976Z,7.27
2019-02-17T19:43:38.751Z,7.77
2019-02-17T19:46:06.463Z,7.10
2019-02-17T19:48:34.158Z,8.57
2019-02-17T19:51:03.052Z,8.07
2019-02-17T19:53:30.785Z,7.13
2019-02-17T19:55:58.575Z,7.50
2019-02-17T19:58:26.427Z,8.07
2019-02-17T20:00:54.302Z,7.60
2019-02-17T20:03:50.913Z,7.70
2019-02-17T20:06:20.828Z,7.63
2019-02-17T20:08:48.552Z,7.60
2019-02-17T20:11:16.442Z,8.00
2019-02-17T20:13:44.414Z,7.60
2019-02-17T20:16:14.378Z,8.13
2019-02-17T20:18:42.117Z,8.17
2019-02-17T20:21:10.639Z,7.07
2019-02-17T20:23:38.367Z,7.83
2019-02-17T20:26:06.155Z,8.33
2019-02-17T20:28:43.129Z,7.23
2019-02-17T20:31:03.511Z,7.83
2019-02-17T20:33:31.252Z,7.90
2019-02-17T20:36:02.735Z,7.93
2019-02-17T20:38:28.522Z,8.37
2019-02-17T20:40:56.207Z,7.70
2019-02-17T20:43:23.953Z,7.97
2019-02-17T20:45:51.764Z,8.53
2019-02-17T20:48:19.457Z,8.23
2019-02-17T20:50:47.159Z,8.77
2019-02-17T20:53:14.887Z,9.83
2019-02-17T20:55:42.657Z,9.57
2019-02-17T20:58:13.531Z,8.00
2019-02-17T21:00:41.411Z,9.33
2019-02-17T21:03:09.134Z,8.43
2019-02-17T21:05:36.975Z,8.10
2019-02-17T21:08:04.770Z,8.53
2019-02-17T21:10:32.728Z,8.37
2019-02-17T21:13:00.541Z,8.20
2019-02-17T21:15:28.266Z,7.77
2019-02-17T21:17:56.029Z,8.30
2019-02-17T21:20:24.096Z,8.50
2019-02-17T21:22:53.085Z,8.20
2019-02-17T21:25:20.955Z,8.40
2019-02-17T21:27:48.696Z,8.10
2019-02-17T21:30:16.680Z,8.30
2019-02-17T21:32:44.454Z,8.10
2019-02-17T21:35:12.361Z,8.37
2019-02-17T21:37:41.123Z,9.00
2019-02-17T21:40:11.717Z,8.07
2019-02-17T21:42:39.533Z,8.40
2019-02-17T21:45:09.047Z,9.00
2019-02-17T21:47:38.999Z,8.80
2019-02-17T21:50:07.387Z,9.00
2019-02-17T21:52:35.117Z,8.83
2019-02-17T21:55:03.085Z,8.57
2019-02-17T21:57:30.870Z,8.50
2019-02-17T21:59:58.597Z,8.53
2019-02-17T22:02:26.343Z,8.67
2019-02-17T22:04:54.052Z,8.33
2019-02-17T22:07:21.868Z,8.93
2019-02-17T22:09:49.601Z,8.47
2019-02-17T22:12:17.345Z,9.17
2019-02-17T22:14:45.870Z,9.10
2019-02-17T22:17:13.615Z,8.60
2019-02-17T22:19:41.323Z,7.97
2019-02-17T22:22:09.119Z,7.73
2019-02-17T22:24:36.889Z,7.77
2019-02-17T22:27:04.633Z,8.30
2019-02-17T22:29:34.152Z,8.03
2019-02-17T22:32:01.900Z,8.10
2019-02-17T22:34:29.587Z,8.03
2019-02-17T22:36:57.293Z,8.17
2019-02-17T22:39:25.036Z,7.63
2019-02-17T22:41:52.838Z,8.03
2019-02-17T22:44:20.609Z,7.83
2019-02-17T22:46:48.332Z,8.07
2019-02-17T22:49:16.015Z,7.57
2019-02-17T22:51:43.725Z,7.80
2019-02-17T22:54:11.415Z,7.50
2019-02-17T22:56:39.222Z,7.27
2019-02-17T22:59:06.992Z,7.20
2019-02-17T23:01:35.152Z,7.33
2019-02-17T23:04:02.824Z,7.70
2019-02-17T23:06:30.576Z,7.33
2019-02-17T23:08:58.391Z,7.53
2019-02-17T23:11:26.150Z,7.47
2019-02-17T23:13:53.914Z,7.73
2019-02-17T23:16:21.671Z,7.50
2019-02-17T23:18:49.392Z,7.37
2019-02-17T23:21:17.149Z,7.70
2019-02-17T23:23:44.868Z,7.13
2019-02-17T23:26:12.599Z,7.23
2019-02-17T23:28:40.329Z,8.07
2019-02-17T23:31:08.052Z,7.30
2019-02-17T23:33:35.780Z,7.87
2019-02-17T23:36:03.450Z,7.10
2019-02-17T23:38:31.166Z,8.10
2019-02-17T23:40:59.945Z,7.37
2019-02-17T23:43:27.688Z,7.53
2019-02-17T23:45:55.423Z,7.03
2019-02-17T23:48:23.191Z,7.17
2019-02-17T23:50:50.854Z,7.23
2019-02-17T23:53:18.588Z,6.77
2019-02-17T23:55:46.315Z,6.70
2019-02-17T23:58:14.054Z,7.30
